sensor_id;sensor_type;location;lat;lon;timestamp;temperature;humidity
16066;DHT22;8137;48.952;8.970;2024-03-23T00:54:38;6.40;99.90
16066;DHT22;8137;48.952;8.970;2024-03-23T00:57:03;6.40;99.90
16066;DHT22;8137;48.952;8.970;2024-03-23T00:59:29;6.40;99.90
16066;DHT22;8137;48.952;8.970;2024-03-23T01:01:56;6.50;99.90
16066;DHT22;8137;48.952;8.970;2024-03-23T01:04:22;6.50;99.90
16066;DHT22;8137;48.952;8.970;2024-03-23T01:06:47;6.60;99.90
16066;DHT22;8137;48.952;8.970;2024-03-23T01:09:13;6.50;99.90
16066;DHT22;8137;48.952;8.970;2024-03-23T01:11:39;6.50;99.90
16066;DHT22;8137;48.952;8.970;2024-03-23T01:14:05;6.50;99.90
16066;DHT22;8137;48.952;8.970;2024-03-23T01:16:31;6.60;99.90
16066;DHT22;8137;48.952;8.970;2024-03-23T01:18:57;6.50;99.90
16066;DHT22;8137;48.952;8.970;2024-03-23T01:21:23;6.50;99.90
16066;DHT22;8137;48.952;8.970;2024-03-23T01:23:49;6.60;99.90
16066;DHT22;8137;48.952;8.970;2024-03-23T01:26:14;6.60;99.90
16066;DHT22;8137;48.952;8.970;2024-03-23T01:28:40;6.60;99.90
16066;DHT22;8137;48.952;8.970;2024-03-23T01:31:06;6.60;99.90
16066;DHT22;8137;48.952;8.970;2024-03-23T01:33:31;6.60;99.90
16066;DHT22;8137;48.952;8.970;2024-03-23T01:35:57;6.60;99.90
16066;DHT22;8137;48.952;8.970;2024-03-23T01:38:22;6.60;99.90
16066;DHT22;8137;48.952;8.970;2024-03-23T01:40:48;6.70;99.90
16066;DHT22;8137;48.952;8.970;2024-03-23T01:43:14;6.60;99.90
16066;DHT22;8137;48.952;8.970;2024-03-23T01:45:39;6.60;99.90
16066;DHT22;8137;48.952;8.970;2024-03-23T01:48:05;6.60;99.90
16066;DHT22;8137;48.952;8.970;2024-03-23T01:50:31;6.60;99.90
16066;DHT22;8137;48.952;8.970;2024-03-23T01:53:02;6.60;99.90
16066;DHT22;8137;48.952;8.970;2024-03-23T01:55:32;6.60;99.90
16066;DHT22;8137;48.952;8.970;2024-03-23T01:57:57;6.60;99.90
16066;DHT22;8137;48.952;8.970;2024-03-23T02:00:23;6.60;99.90
16066;DHT22;8137;48.952;8.970;2024-03-23T02:02:49;6.50;99.90
16066;DHT22;8137;48.952;8.970;2024-03-23T02:05:15;6.40;99.90
16066;DHT22;8137;48.952;8.970;2024-03-23T02:07:43;6.40;99.90
16066;DHT22;8137;48.952;8.970;2024-03-23T02:10:10;6.30;99.90
16066;DHT22;8137;48.952;8.970;2024-03-23T02:12:38;6.30;99.90
16066;DHT22;8137;48.952;8.970;2024-03-23T02:15:04;6.30;99.90
16066;DHT22;8137;48.952;8.970;2024-03-23T02:17:32;6.30;99.90
16066;DHT22;8137;48.952;8.970;2024-03-23T02:19:58;6.20;99.90
16066;DHT22;8137;48.952;8.970;2024-03-23T02:22:24;6.20;99.90
16066;DHT22;8137;48.952;8.970;2024-03-23T02:24:49;6.20;99.90
16066;DHT22;8137;48.952;8.970;2024-03-23T02:27:15;6.20;99.90
16066;DHT22;8137;48.952;8.970;2024-03-23T02:29:41;6.20;99.90
16066;DHT22;8137;48.952;8.970;2024-03-23T02:32:06;6.20;99.90
16066;DHT22;8137;48.952;8.970;2024-03-23T02:34:34;6.20;99.90
16066;DHT22;8137;48.952;8.970;2024-03-23T02:37:00;6.20;99.90
16066;DHT22;8137;48.952;8.970;2024-03-23T02:39:26;6.20;99.90
16066;DHT22;8137;48.952;8.970;2024-03-23T02:41:51;6.30;99.90
16066;DHT22;8137;48.952;8.970;2024-03-23T02:44:17;6.30;99.90
16066;DHT22;8137;48.952;8.970;2024-03-23T02:46:42;6.40;99.90
16066;DHT22;8137;48.952;8.970;2024-03-23T02:49:08;6.40;99.90
16066;DHT22;8137;48.952;8.970;2024-03-23T02:51:34;6.50;99.90
16066;DHT22;8137;48.952;8.970;2024-03-23T02:53:59;6.50;99.90
16066;DHT22;8137;48.952;8.970;2024-03-23T02:56:25;6.40;99.90
16066;DHT22;8137;48.952;8.970;2024-03-23T02:58:50;6.40;99.90
16066;DHT22;8137;48.952;8.970;2024-03-23T03:01:16;6.40;99.90
16066;DHT22;8137;48.952;8.970;2024-03-23T03:03:42;6.50;99.90
16066;DHT22;8137;48.952;8.970;2024-03-23T03:06:07;6.50;99.90
16066;DHT22;8137;48.952;8.970;2024-03-23T03:08:33;6.50;99.90
16066;DHT22;8137;48.952;8.970;2024-03-23T03:10:59;6.50;99.90
16066;DHT22;8137;48.952;8.970;2024-03-23T03:13:24;6.50;99.90
16066;DHT22;8137;48.952;8.970;2024-03-23T03:15:50;6.50;99.90
16066;DHT22;8137;48.952;8.970;2024-03-23T03:18:16;6.60;99.90
16066;DHT22;8137;48.952;8.970;2024-03-23T03:20:41;6.60;99.90
16066;DHT22;8137;48.952;8.970;2024-03-23T03:23:07;6.60;99.90
16066;DHT22;8137;48.952;8.970;2024-03-23T03:25:33;6.60;99.90
16066;DHT22;8137;48.952;8.970;2024-03-23T03:27:59;6.70;99.90
16066;DHT22;8137;48.952;8.970;2024-03-23T03:30:24;6.70;99.90
16066;DHT22;8137;48.952;8.970;2024-03-23T03:32:53;6.80;99.90
16066;DHT22;8137;48.952;8.970;2024-03-23T03:35:18;6.80;99.90
16066;DHT22;8137;48.952;8.970;2024-03-23T03:37:44;6.90;99.90
16066;DHT22;8137;48.952;8.970;2024-03-23T03:40:10;6.90;99.90
16066;DHT22;8137;48.952;8.970;2024-03-23T03:42:36;7.00;99.90
16066;DHT22;8137;48.952;8.970;2024-03-23T03:45:02;7.00;99.90
16066;DHT22;8137;48.952;8.970;2024-03-23T03:47:30;7.10;99.90
16066;DHT22;8137;48.952;8.970;2024-03-23T03:49:55;7.20;99.90
16066;DHT22;8137;48.952;8.970;2024-03-23T03:52:21;7.30;99.90
16066;DHT22;8137;48.952;8.970;2024-03-23T03:54:47;7.40;99.90
16066;DHT22;8137;48.952;8.970;2024-03-23T03:57:12;7.60;99.90
16066;DHT22;8137;48.952;8.970;2024-03-23T03:59:38;7.70;99.90
16066;DHT22;8137;48.952;8.970;2024-03-23T04:02:03;8.00;99.90
16066;DHT22;8137;48.952;8.970;2024-03-23T04:04:29;8.90;99.90
16066;DHT22;8137;48.952;8.970;2024-03-23T04:06:59;9.70;99.90
16066;DHT22;8137;48.952;8.970;2024-03-23T04:09:25;10.30;99.90
16066;DHT22;8137;48.952;8.970;2024-03-23T04:11:51;10.60;99.90
16066;DHT22;8137;48.952;8.970;2024-03-23T04:14:16;10.70;99.90
16066;DHT22;8137;48.952;8.970;2024-03-23T04:16:42;10.80;99.90
16066;DHT22;8137;48.952;8.970;2024-03-23T04:19:08;10.80;99.90
16066;DHT22;8137;48.952;8.970;2024-03-23T04:21:34;10.80;99.90
16066;DHT22;8137;48.952;8.970;2024-03-23T04:23:59;10.70;99.90
16066;DHT22;8137;48.952;8.970;2024-03-23T04:26:25;10.60;99.90
16066;DHT22;8137;48.952;8.970;2024-03-23T04:28:51;10.50;99.90
16066;DHT22;8137;48.952;8.970;2024-03-23T04:31:16;10.50;99.90
16066;DHT22;8137;48.952;8.970;2024-03-23T04:33:42;10.40;99.90
16066;DHT22;8137;48.952;8.970;2024-03-23T04:36:07;10.40;99.90
16066;DHT22;8137;48.952;8.970;2024-03-23T04:38:33;10.50;99.90
16066;DHT22;8137;48.952;8.970;2024-03-23T04:40:59;10.50;99.90
16066;DHT22;8137;48.952;8.970;2024-03-23T04:43:26;10.60;99.90
16066;DHT22;8137;48.952;8.970;2024-03-23T04:45:52;10.60;99.90
16066;DHT22;8137;48.952;8.970;2024-03-23T04:48:21;10.60;99.90
16066;DHT22;8137;48.952;8.970;2024-03-23T04:50:54;10.60;99.90
16066;DHT22;8137;48.952;8.970;2024-03-23T04:53:20;10.60;99.90
16066;DHT22;8137;48.952;8.970;2024-03-23T04:55:46;10.60;99.90
16066;DHT22;8137;48.952;8.970;2024-03-23T04:58:12;10.50;99.90
16066;DHT22;8137;48.952;8.970;2024-03-23T05:00:38;10.40;99.90
16066;DHT22;8137;48.952;8.970;2024-03-23T05:03:04;10.40;99.90
16066;DHT22;8137;48.952;8.970;2024-03-23T05:05:30;10.40;99.90
16066;DHT22;8137;48.952;8.970;2024-03-23T05:07:55;10.40;99.90
16066;DHT22;8137;48.952;8.970;2024-03-23T05:10:21;10.30;99.90
16066;DHT22;8137;48.952;8.970;2024-03-23T05:12:47;10.30;99.90
16066;DHT22;8137;48.952;8.970;2024-03-23T05:15:12;10.30;99.90
16066;DHT22;8137;48.952;8.970;2024-03-23T05:17:38;10.30;99.90
16066;DHT22;8137;48.952;8.970;2024-03-23T05:20:05;10.20;99.90
16066;DHT22;8137;48.952;8.970;2024-03-23T05:22:38;10.20;99.90
16066;DHT22;8137;48.952;8.970;2024-03-23T05:25:03;10.10;99.90
16066;DHT22;8137;48.952;8.970;2024-03-23T05:27:33;10.10;99.90
16066;DHT22;8137;48.952;8.970;2024-03-23T05:29:58;10.10;99.90
16066;DHT22;8137;48.952;8.970;2024-03-23T05:32:24;10.00;99.90
16066;DHT22;8137;48.952;8.970;2024-03-23T05:34:50;9.90;99.90
16066;DHT22;8137;48.952;8.970;2024-03-23T05:37:21;9.80;99.90
16066;DHT22;8137;48.952;8.970;2024-03-23T05:39:47;9.70;99.90
16066;DHT22;8137;48.952;8.970;2024-03-23T05:42:18;9.60;99.90
16066;DHT22;8137;48.952;8.970;2024-03-23T05:44:47;9.50;99.90
16066;DHT22;8137;48.952;8.970;2024-03-23T05:47:13;9.50;99.90
16066;DHT22;8137;48.952;8.970;2024-03-23T05:49:40;9.50;99.90
16066;DHT22;8137;48.952;8.970;2024-03-23T05:52:08;9.50;99.90
16066;DHT22;8137;48.952;8.970;2024-03-23T05:54:33;9.50;99.90
16066;DHT22;8137;48.952;8.970;2024-03-23T05:56:59;9.50;99.90
16066;DHT22;8137;48.952;8.970;2024-03-23T05:59:25;9.40;99.90
16066;DHT22;8137;48.952;8.970;2024-03-23T06:01:52;9.40;99.90
16066;DHT22;8137;48.952;8.970;2024-03-23T06:04:18;9.40;99.90
16066;DHT22;8137;48.952;8.970;2024-03-23T06:06:45;9.40;99.90
16066;DHT22;8137;48.952;8.970;2024-03-23T06:09:11;9.30;99.90
16066;DHT22;8137;48.952;8.970;2024-03-23T06:11:36;9.20;99.90
16066;DHT22;8137;48.952;8.970;2024-03-23T06:14:02;9.20;99.90
16066;DHT22;8137;48.952;8.970;2024-03-23T06:16:28;9.20;99.90
16066;DHT22;8137;48.952;8.970;2024-03-23T06:18:54;9.10;99.90
16066;DHT22;8137;48.952;8.970;2024-03-23T06:21:24;9.10;99.90
16066;DHT22;8137;48.952;8.970;2024-03-23T06:23:53;9.00;99.90
16066;DHT22;8137;48.952;8.970;2024-03-23T06:26:19;9.00;99.90
16066;DHT22;8137;48.952;8.970;2024-03-23T06:28:46;8.90;99.90
16066;DHT22;8137;48.952;8.970;2024-03-23T06:31:12;8.90;99.90
16066;DHT22;8137;48.952;8.970;2024-03-23T06:33:38;8.90;99.90
16066;DHT22;8137;48.952;8.970;2024-03-23T06:36:05;8.90;99.90
16066;DHT22;8137;48.952;8.970;2024-03-23T06:38:31;8.90;99.90
16066;DHT22;8137;48.952;8.970;2024-03-23T06:40:56;8.90;99.90
16066;DHT22;8137;48.952;8.970;2024-03-23T06:43:22;8.90;99.90
16066;DHT22;8137;48.952;8.970;2024-03-23T06:45:54;9.00;99.90
16066;DHT22;8137;48.952;8.970;2024-03-23T06:48:20;9.10;99.90
16066;DHT22;8137;48.952;8.970;2024-03-23T06:50:46;9.10;99.90
16066;DHT22;8137;48.952;8.970;2024-03-23T06:53:13;9.10;99.90
16066;DHT22;8137;48.952;8.970;2024-03-23T06:55:39;9.10;99.90
16066;DHT22;8137;48.952;8.970;2024-03-23T06:58:04;9.10;99.90
16066;DHT22;8137;48.952;8.970;2024-03-23T07:00:30;9.10;99.90
16066;DHT22;8137;48.952;8.970;2024-03-23T07:02:57;9.10;99.90
16066;DHT22;8137;48.952;8.970;2024-03-23T07:05:23;9.00;99.90
16066;DHT22;8137;48.952;8.970;2024-03-23T07:07:49;9.00;99.90
16066;DHT22;8137;48.952;8.970;2024-03-23T07:10:15;8.90;99.90
16066;DHT22;8137;48.952;8.970;2024-03-23T07:12:41;8.80;99.90
16066;DHT22;8137;48.952;8.970;2024-03-23T07:15:07;8.80;99.90
16066;DHT22;8137;48.952;8.970;2024-03-23T07:17:33;8.80;99.90
16066;DHT22;8137;48.952;8.970;2024-03-23T07:20:03;8.70;99.90
16066;DHT22;8137;48.952;8.970;2024-03-23T07:22:32;8.80;99.90
16066;DHT22;8137;48.952;8.970;2024-03-23T07:25:01;8.70;99.90
16066;DHT22;8137;48.952;8.970;2024-03-23T07:27:27;8.70;99.90
16066;DHT22;8137;48.952;8.970;2024-03-23T07:29:52;8.70;99.90
16066;DHT22;8137;48.952;8.970;2024-03-23T07:32:18;8.70;99.90
16066;DHT22;8137;48.952;8.970;2024-03-23T07:34:44;8.70;99.90
16066;DHT22;8137;48.952;8.970;2024-03-23T07:37:13;8.90;99.90
16066;DHT22;8137;48.952;8.970;2024-03-23T07:39:39;9.00;99.90
16066;DHT22;8137;48.952;8.970;2024-03-23T07:42:05;9.10;99.90
16066;DHT22;8137;48.952;8.970;2024-03-23T07:44:31;9.10;99.90
16066;DHT22;8137;48.952;8.970;2024-03-23T07:46:56;9.00;99.90
16066;DHT22;8137;48.952;8.970;2024-03-23T07:49:22;8.90;99.90
16066;DHT22;8137;48.952;8.970;2024-03-23T07:51:48;8.70;99.90
16066;DHT22;8137;48.952;8.970;2024-03-23T07:54:13;8.60;99.90
16066;DHT22;8137;48.952;8.970;2024-03-23T07:56:39;8.50;99.90
16066;DHT22;8137;48.952;8.970;2024-03-23T07:59:04;8.40;99.90
16066;DHT22;8137;48.952;8.970;2024-03-23T08:01:30;8.30;99.90
16066;DHT22;8137;48.952;8.970;2024-03-23T08:03:56;8.20;99.90
16066;DHT22;8137;48.952;8.970;2024-03-23T08:06:21;7.90;99.90
16066;DHT22;8137;48.952;8.970;2024-03-23T08:08:49;7.70;99.90
16066;DHT22;8137;48.952;8.970;2024-03-23T08:11:16;7.70;99.90
16066;DHT22;8137;48.952;8.970;2024-03-23T08:13:42;7.60;99.90
16066;DHT22;8137;48.952;8.970;2024-03-23T08:16:10;7.60;99.90
16066;DHT22;8137;48.952;8.970;2024-03-23T08:18:36;8.00;99.90
16066;DHT22;8137;48.952;8.970;2024-03-23T08:21:03;8.30;99.90
16066;DHT22;8137;48.952;8.970;2024-03-23T08:23:31;8.70;99.90
16066;DHT22;8137;48.952;8.970;2024-03-23T08:26:00;8.70;99.90
16066;DHT22;8137;48.952;8.970;2024-03-23T08:28:27;8.80;99.90
16066;DHT22;8137;48.952;8.970;2024-03-23T08:30:54;8.60;99.90
16066;DHT22;8137;48.952;8.970;2024-03-23T08:33:20;8.60;99.90
16066;DHT22;8137;48.952;8.970;2024-03-23T08:36:05;8.80;99.90
16066;DHT22;8137;48.952;8.970;2024-03-23T08:38:31;8.90;99.90
16066;DHT22;8137;48.952;8.970;2024-03-23T08:41:01;9.10;99.90
16066;DHT22;8137;48.952;8.970;2024-03-23T08:43:28;9.20;99.90
16066;DHT22;8137;48.952;8.970;2024-03-23T08:46:13;9.30;99.90
16066;DHT22;8137;48.952;8.970;2024-03-23T08:48:40;9.30;99.90
16066;DHT22;8137;48.952;8.970;2024-03-23T08:51:08;9.20;99.90
16066;DHT22;8137;48.952;8.970;2024-03-23T08:53:37;9.20;99.90
16066;DHT22;8137;48.952;8.970;2024-03-23T08:56:05;9.10;99.90
16066;DHT22;8137;48.952;8.970;2024-03-23T08:58:32;9.10;99.90
16066;DHT22;8137;48.952;8.970;2024-03-23T09:01:24;9.10;99.90
16066;DHT22;8137;48.952;8.970;2024-03-23T09:03:50;9.00;99.90
16066;DHT22;8137;48.952;8.970;2024-03-23T09:06:15;8.70;99.90
16066;DHT22;8137;48.952;8.970;2024-03-23T09:08:42;8.60;99.90
16066;DHT22;8137;48.952;8.970;2024-03-23T09:11:09;8.60;99.90
16066;DHT22;8137;48.952;8.970;2024-03-23T09:13:36;8.50;99.90
16066;DHT22;8137;48.952;8.970;2024-03-23T09:16:03;8.50;99.90
16066;DHT22;8137;48.952;8.970;2024-03-23T09:18:32;8.60;99.90
16066;DHT22;8137;48.952;8.970;2024-03-23T09:20:58;8.90;99.90
16066;DHT22;8137;48.952;8.970;2024-03-23T09:23:23;9.10;99.90
16066;DHT22;8137;48.952;8.970;2024-03-23T09:25:49;9.30;99.90
16066;DHT22;8137;48.952;8.970;2024-03-23T09:28:15;9.40;99.90
16066;DHT22;8137;48.952;8.970;2024-03-23T09:30:40;9.40;99.90
16066;DHT22;8137;48.952;8.970;2024-03-23T09:33:10;9.30;99.90
16066;DHT22;8137;48.952;8.970;2024-03-23T09:35:43;9.20;99.90
16066;DHT22;8137;48.952;8.970;2024-03-23T09:38:10;9.30;99.90
16066;DHT22;8137;48.952;8.970;2024-03-23T09:40:42;9.60;99.90
16066;DHT22;8137;48.952;8.970;2024-03-23T09:43:08;9.70;99.90
16066;DHT22;8137;48.952;8.970;2024-03-23T09:45:38;9.90;99.90
16066;DHT22;8137;48.952;8.970;2024-03-23T09:48:04;10.20;99.90
16066;DHT22;8137;48.952;8.970;2024-03-23T09:50:31;10.30;99.90
16066;DHT22;8137;48.952;8.970;2024-03-23T09:52:56;10.50;99.90
16066;DHT22;8137;48.952;8.970;2024-03-23T09:55:22;10.40;99.90
16066;DHT22;8137;48.952;8.970;2024-03-23T09:57:49;10.30;99.90
16066;DHT22;8137;48.952;8.970;2024-03-23T10:00:16;10.10;99.90
16066;DHT22;8137;48.952;8.970;2024-03-23T10:02:42;9.70;99.90
16066;DHT22;8137;48.952;8.970;2024-03-23T10:05:23;9.50;99.90
16066;DHT22;8137;48.952;8.970;2024-03-23T10:07:51;9.30;99.90
16066;DHT22;8137;48.952;8.970;2024-03-23T10:10:17;9.30;99.90
16066;DHT22;8137;48.952;8.970;2024-03-23T10:12:48;9.20;99.90
16066;DHT22;8137;48.952;8.970;2024-03-23T10:15:19;9.30;99.90
16066;DHT22;8137;48.952;8.970;2024-03-23T10:17:45;9.40;99.90
16066;DHT22;8137;48.952;8.970;2024-03-23T10:20:11;9.50;99.90
16066;DHT22;8137;48.952;8.970;2024-03-23T10:22:38;9.40;99.90
16066;DHT22;8137;48.952;8.970;2024-03-23T10:25:08;9.40;99.90
16066;DHT22;8137;48.952;8.970;2024-03-23T10:27:34;9.30;99.90
16066;DHT22;8137;48.952;8.970;2024-03-23T10:30:08;9.10;99.90
16066;DHT22;8137;48.952;8.970;2024-03-23T10:32:34;9.00;99.90
16066;DHT22;8137;48.952;8.970;2024-03-23T10:35:19;8.80;99.90
16066;DHT22;8137;48.952;8.970;2024-03-23T10:37:46;8.50;99.90
16066;DHT22;8137;48.952;8.970;2024-03-23T10:40:13;8.20;99.90
16066;DHT22;8137;48.952;8.970;2024-03-23T10:42:39;7.90;99.90
16066;DHT22;8137;48.952;8.970;2024-03-23T10:45:06;7.60;99.90
16066;DHT22;8137;48.952;8.970;2024-03-23T10:47:33;7.30;99.90
16066;DHT22;8137;48.952;8.970;2024-03-23T10:49:59;7.10;99.90
16066;DHT22;8137;48.952;8.970;2024-03-23T10:52:25;7.00;99.90
16066;DHT22;8137;48.952;8.970;2024-03-23T10:54:54;7.00;99.90
16066;DHT22;8137;48.952;8.970;2024-03-23T10:57:23;7.10;99.90
16066;DHT22;8137;48.952;8.970;2024-03-23T10:59:51;7.20;99.90
16066;DHT22;8137;48.952;8.970;2024-03-23T11:02:21;7.30;99.90
16066;DHT22;8137;48.952;8.970;2024-03-23T11:04:47;7.40;99.90
16066;DHT22;8137;48.952;8.970;2024-03-23T11:09:51;7.70;99.90
16066;DHT22;8137;48.952;8.970;2024-03-23T11:15:10;8.30;99.90
16066;DHT22;8137;48.952;8.970;2024-03-23T11:17:37;8.50;99.90
16066;DHT22;8137;48.952;8.970;2024-03-23T11:20:03;8.80;99.90
16066;DHT22;8137;48.952;8.970;2024-03-23T11:22:41;8.70;99.90
16066;DHT22;8137;48.952;8.970;2024-03-23T11:25:18;8.50;99.90
16066;DHT22;8137;48.952;8.970;2024-03-23T11:27:46;8.50;99.90
16066;DHT22;8137;48.952;8.970;2024-03-23T11:30:13;8.80;99.90
16066;DHT22;8137;48.952;8.970;2024-03-23T11:32:40;8.90;99.90
16066;DHT22;8137;48.952;8.970;2024-03-23T11:35:06;9.20;99.90
16066;DHT22;8137;48.952;8.970;2024-03-23T11:37:32;9.40;99.90
16066;DHT22;8137;48.952;8.970;2024-03-23T11:39:57;9.50;99.90
16066;DHT22;8137;48.952;8.970;2024-03-23T11:42:23;9.70;99.90
16066;DHT22;8137;48.952;8.970;2024-03-23T11:44:48;10.10;99.90
16066;DHT22;8137;48.952;8.970;2024-03-23T11:47:14;10.10;99.90
16066;DHT22;8137;48.952;8.970;2024-03-23T11:49:40;10.10;99.90
16066;DHT22;8137;48.952;8.970;2024-03-23T11:52:08;10.10;99.90
16066;DHT22;8137;48.952;8.970;2024-03-23T11:54:34;10.30;99.90
16066;DHT22;8137;48.952;8.970;2024-03-23T11:57:04;10.60;99.90
16066;DHT22;8137;48.952;8.970;2024-03-23T12:01:59;10.40;99.90
16066;DHT22;8137;48.952;8.970;2024-03-23T12:04:26;10.50;99.90
16066;DHT22;8137;48.952;8.970;2024-03-23T12:07:18;10.80;99.90
16066;DHT22;8137;48.952;8.970;2024-03-23T12:09:45;10.90;99.90
16066;DHT22;8137;48.952;8.970;2024-03-23T12:12:17;10.90;99.90
16066;DHT22;8137;48.952;8.970;2024-03-23T12:15:05;10.50;99.90
16066;DHT22;8137;48.952;8.970;2024-03-23T12:17:31;10.50;99.90
16066;DHT22;8137;48.952;8.970;2024-03-23T12:19:57;10.60;99.90
16066;DHT22;8137;48.952;8.970;2024-03-23T12:22:23;10.60;99.90
16066;DHT22;8137;48.952;8.970;2024-03-23T12:24:49;10.40;99.90
16066;DHT22;8137;48.952;8.970;2024-03-23T12:27:15;10.60;99.90
16066;DHT22;8137;48.952;8.970;2024-03-23T12:29:41;10.60;99.90
16066;DHT22;8137;48.952;8.970;2024-03-23T12:32:13;10.80;99.90
16066;DHT22;8137;48.952;8.970;2024-03-23T12:34:40;11.00;99.90
16066;DHT22;8137;48.952;8.970;2024-03-23T12:37:05;11.20;99.90
16066;DHT22;8137;48.952;8.970;2024-03-23T12:39:38;11.40;99.90
16066;DHT22;8137;48.952;8.970;2024-03-23T12:42:03;11.00;99.90
16066;DHT22;8137;48.952;8.970;2024-03-23T12:44:29;10.50;99.90
16066;DHT22;8137;48.952;8.970;2024-03-23T12:46:55;10.30;99.90
16066;DHT22;8137;48.952;8.970;2024-03-23T12:49:21;10.50;99.90
16066;DHT22;8137;48.952;8.970;2024-03-23T12:51:54;10.80;99.90
16066;DHT22;8137;48.952;8.970;2024-03-23T12:54:24;10.90;99.90
16066;DHT22;8137;48.952;8.970;2024-03-23T12:56:50;11.10;99.90
16066;DHT22;8137;48.952;8.970;2024-03-23T12:59:16;11.30;99.90
16066;DHT22;8137;48.952;8.970;2024-03-23T13:01:43;11.40;99.90
16066;DHT22;8137;48.952;8.970;2024-03-23T13:04:09;11.50;99.90
16066;DHT22;8137;48.952;8.970;2024-03-23T13:06:35;11.40;99.90
16066;DHT22;8137;48.952;8.970;2024-03-23T13:09:01;11.70;99.90
16066;DHT22;8137;48.952;8.970;2024-03-23T13:11:28;12.10;99.90
16066;DHT22;8137;48.952;8.970;2024-03-23T13:13:54;12.50;99.90
16066;DHT22;8137;48.952;8.970;2024-03-23T13:16:20;12.40;99.90
16066;DHT22;8137;48.952;8.970;2024-03-23T13:18:46;12.20;99.90
16066;DHT22;8137;48.952;8.970;2024-03-23T13:21:11;12.10;99.90
16066;DHT22;8137;48.952;8.970;2024-03-23T13:23:37;12.30;99.90
16066;DHT22;8137;48.952;8.970;2024-03-23T13:26:05;12.40;99.90
16066;DHT22;8137;48.952;8.970;2024-03-23T13:28:31;12.20;99.90
16066;DHT22;8137;48.952;8.970;2024-03-23T13:30:57;12.10;99.90
16066;DHT22;8137;48.952;8.970;2024-03-23T13:33:29;11.90;99.90
16066;DHT22;8137;48.952;8.970;2024-03-23T13:35:55;11.20;99.90
16066;DHT22;8137;48.952;8.970;2024-03-23T13:38:24;9.90;99.90
16066;DHT22;8137;48.952;8.970;2024-03-23T13:43:16;8.50;99.90
16066;DHT22;8137;48.952;8.970;2024-03-23T13:45:42;8.30;99.90
16066;DHT22;8137;48.952;8.970;2024-03-23T13:48:07;8.20;99.90
16066;DHT22;8137;48.952;8.970;2024-03-23T13:50:33;8.00;99.90
16066;DHT22;8137;48.952;8.970;2024-03-23T13:53:00;7.90;99.90
16066;DHT22;8137;48.952;8.970;2024-03-23T13:55:25;8.00;99.90
16066;DHT22;8137;48.952;8.970;2024-03-23T13:57:51;8.00;99.90
16066;DHT22;8137;48.952;8.970;2024-03-23T14:00:16;8.30;99.90
16066;DHT22;8137;48.952;8.970;2024-03-23T14:02:44;8.90;99.90
16066;DHT22;8137;48.952;8.970;2024-03-23T14:05:10;9.20;99.90
16066;DHT22;8137;48.952;8.970;2024-03-23T14:07:36;9.50;99.90
16066;DHT22;8137;48.952;8.970;2024-03-23T14:10:05;9.40;99.90
16066;DHT22;8137;48.952;8.970;2024-03-23T14:12:36;9.20;99.90
16066;DHT22;8137;48.952;8.970;2024-03-23T14:15:05;9.20;99.90
16066;DHT22;8137;48.952;8.970;2024-03-23T14:17:31;9.30;99.90
16066;DHT22;8137;48.952;8.970;2024-03-23T14:19:56;9.10;99.90
16066;DHT22;8137;48.952;8.970;2024-03-23T14:22:29;9.00;99.90
16066;DHT22;8137;48.952;8.970;2024-03-23T14:24:54;9.20;99.90
16066;DHT22;8137;48.952;8.970;2024-03-23T14:27:20;9.30;99.90
16066;DHT22;8137;48.952;8.970;2024-03-23T14:29:47;9.40;99.90
16066;DHT22;8137;48.952;8.970;2024-03-23T14:32:13;9.30;99.90
16066;DHT22;8137;48.952;8.970;2024-03-23T14:34:38;9.50;99.90
16066;DHT22;8137;48.952;8.970;2024-03-23T14:37:04;9.60;99.90
16066;DHT22;8137;48.952;8.970;2024-03-23T14:39:32;9.70;99.90
16066;DHT22;8137;48.952;8.970;2024-03-23T14:42:00;9.90;99.90
16066;DHT22;8137;48.952;8.970;2024-03-23T14:44:26;9.80;99.90
16066;DHT22;8137;48.952;8.970;2024-03-23T14:46:53;9.90;99.90
16066;DHT22;8137;48.952;8.970;2024-03-23T14:49:19;9.90;99.90
16066;DHT22;8137;48.952;8.970;2024-03-23T14:51:44;9.80;99.90
16066;DHT22;8137;48.952;8.970;2024-03-23T14:54:11;9.60;99.90
16066;DHT22;8137;48.952;8.970;2024-03-23T14:56:37;9.40;99.90
16066;DHT22;8137;48.952;8.970;2024-03-23T14:59:03;9.20;99.90
16066;DHT22;8137;48.952;8.970;2024-03-23T15:01:29;8.80;99.90
16066;DHT22;8137;48.952;8.970;2024-03-23T15:03:54;8.70;99.90
16066;DHT22;8137;48.952;8.970;2024-03-23T15:06:20;8.50;99.90
16066;DHT22;8137;48.952;8.970;2024-03-23T15:08:45;8.70;99.90
16066;DHT22;8137;48.952;8.970;2024-03-23T15:11:11;9.10;99.90
16066;DHT22;8137;48.952;8.970;2024-03-23T15:13:37;9.50;99.90
16066;DHT22;8137;48.952;8.970;2024-03-23T15:16:04;9.70;99.90
16066;DHT22;8137;48.952;8.970;2024-03-23T15:18:31;9.70;99.90
16066;DHT22;8137;48.952;8.970;2024-03-23T15:21:01;9.50;99.90
16066;DHT22;8137;48.952;8.970;2024-03-23T15:23:37;9.50;99.90
16066;DHT22;8137;48.952;8.970;2024-03-23T15:26:03;9.50;99.90
16066;DHT22;8137;48.952;8.970;2024-03-23T15:28:30;9.50;99.90
16066;DHT22;8137;48.952;8.970;2024-03-23T15:31:08;9.60;99.90
16066;DHT22;8137;48.952;8.970;2024-03-23T15:33:37;9.50;99.90
16066;DHT22;8137;48.952;8.970;2024-03-23T15:36:05;9.40;99.90
16066;DHT22;8137;48.952;8.970;2024-03-23T15:38:34;9.30;99.90
16066;DHT22;8137;48.952;8.970;2024-03-23T15:41:00;9.30;99.90
16066;DHT22;8137;48.952;8.970;2024-03-23T15:43:26;9.20;99.90
16066;DHT22;8137;48.952;8.970;2024-03-23T15:45:56;9.20;99.90
16066;DHT22;8137;48.952;8.970;2024-03-23T15:48:23;9.00;99.90
16066;DHT22;8137;48.952;8.970;2024-03-23T15:50:56;9.00;99.90
16066;DHT22;8137;48.952;8.970;2024-03-23T15:53:23;9.10;99.90
16066;DHT22;8137;48.952;8.970;2024-03-23T15:55:59;9.10;99.90
16066;DHT22;8137;48.952;8.970;2024-03-23T15:58:25;9.10;99.90
16066;DHT22;8137;48.952;8.970;2024-03-23T16:00:59;9.10;99.90
16066;DHT22;8137;48.952;8.970;2024-03-23T16:03:26;8.90;99.90
16066;DHT22;8137;48.952;8.970;2024-03-23T16:05:59;8.80;99.90
16066;DHT22;8137;48.952;8.970;2024-03-23T16:08:25;8.80;99.90
16066;DHT22;8137;48.952;8.970;2024-03-23T16:10:51;8.80;99.90
16066;DHT22;8137;48.952;8.970;2024-03-23T16:13:18;8.70;99.90
16066;DHT22;8137;48.952;8.970;2024-03-23T16:15:44;8.70;99.90
16066;DHT22;8137;48.952;8.970;2024-03-23T16:18:10;8.60;99.90
16066;DHT22;8137;48.952;8.970;2024-03-23T16:20:36;8.40;99.90
16066;DHT22;8137;48.952;8.970;2024-03-23T16:23:02;8.30;99.90
16066;DHT22;8137;48.952;8.970;2024-03-23T16:25:28;8.30;99.90
16066;DHT22;8137;48.952;8.970;2024-03-23T16:27:54;8.10;99.90
16066;DHT22;8137;48.952;8.970;2024-03-23T16:30:20;8.00;99.90
16066;DHT22;8137;48.952;8.970;2024-03-23T16:32:46;7.90;99.90
16066;DHT22;8137;48.952;8.970;2024-03-23T16:35:12;7.80;99.90
16066;DHT22;8137;48.952;8.970;2024-03-23T16:37:39;7.80;99.90
16066;DHT22;8137;48.952;8.970;2024-03-23T16:40:05;7.70;99.90
16066;DHT22;8137;48.952;8.970;2024-03-23T16:42:32;7.70;99.90
16066;DHT22;8137;48.952;8.970;2024-03-23T16:44:58;7.60;99.90
16066;DHT22;8137;48.952;8.970;2024-03-23T16:47:23;7.60;99.90
16066;DHT22;8137;48.952;8.970;2024-03-23T16:49:49;7.60;99.90
16066;DHT22;8137;48.952;8.970;2024-03-23T16:52:15;7.60;99.90
16066;DHT22;8137;48.952;8.970;2024-03-23T16:54:41;7.60;99.90
16066;DHT22;8137;48.952;8.970;2024-03-23T16:57:07;7.60;99.90
16066;DHT22;8137;48.952;8.970;2024-03-23T16:59:33;7.60;99.90